Aérodrome :
LOGIN :

S'inscrire | Disclaimer

   EN    FR    IT 

 










Légende :    VFR   VFR Marginal   IFR   IFR Intensif   IFR Très Intensif
Visi : 
Plafond : 
>= 8 km
>= 3000ft
5 à 8 km
1000 à 3000 ft
1500m à 5 km
500 à 1000 ft
800 à 1500m
200 à 500 ft
< 800m
< 200 ft
Symboles :   Orages  Brouillard  Fortes neiges  Fortes précipitations  Vent > 20 kt
SIGMETs :   Divers  Orages  Givrage  Turbulence  Onde Orograph.  Cendres Volcan.






- Altitude de l'aérodrome : 2302 ft


LEAB - Albacete

DERNIER METAR :
  • 201900Z 00000KT 9999 -RA BKN030 06/05 Q1010 NOSIG

METARs EXPIRÉS :
  • 201800Z 25003KT 9999 -RA BKN030 06/05 Q1010 NOSIG
  • 201700Z 25006KT 9999 -RA BKN035 07/04 Q1010 NOSIG

TAF TAF LEAB
Valide du 20 à 18h jusqu'au 21 à 03h UTC


201700Z 2018/2103 VRB05KT 9999 BKN030
PROB40
TEMPO 2018/2024 27010KT RA BKN012



MET'MAP, la Météo Aéronautique d'un coup d'oeil ! - Copyright ORBIFLY Décembre 2007 - Disclaimer

ORBIFLY MET'MAP TEAM :

Programmation & Développement : Alexandra Zaïnal
Conception & Développement : Baudouin d'Aumeries
Co-Programmation & Développement : Marc-Olivier Méhu
Soutien technique & logistique : Manuel Goepfert

Contact : metmap@orbifly.com




SOURCES & CREDITS :

   NOAA